Terminal Aerodrome Forecast
Issued by NWS

Home | Current Version | Previous Version | Text Only | Print | Product List | Glossary On
Versions: 1 2 3 4 5 6 7 8 9 10 11 12 13 14 15 16 17 18 19 20 21 22 23 24 25 26 27 28
295
FTUS44 KFWD 280520
TAFFTW
TAF
KFTW 280520Z 2806/2906 07006KT P6SM BKN040
     FM281200 08007KT P6SM BKN015
     FM281500 12010KT 6SM -RA BR OVC007
     FM282100 14014KT P6SM VCSH OVC015
     FM290000 15013KT P6SM VCTS SCT015CB BKN040=

USA.gov is the U.S. government's official web portal to all federal, state and local government web resources and services.